AirNav   Air Wisconsin pilot careers
 
 407 users online  

16G Seneca County Airport
Tiffin, Ohio, USA

GOING TO TIFFIN?


FAA INFORMATION EFFECTIVE 29 MARCH 2018

Location

FAA Identifier: 16G
Lat/Long: 41-05-38.6000N / 083-12-45.0000W
41-05.643333N / 083-12.750000W
41.0940556 / -83.2125000
(estimated)
Elevation: 785.9 ft. / 239.5 m (surveyed)
Variation: 05W (1985)
From city: 2 miles SW of TIFFIN, OH
Time zone: UTC -4 (UTC -5 during Standard Time)
Zip code: 44883

Airport Operations

Airport use: Open to the public
Control tower: no
ARTCC: CLEVELAND CENTER
FSS: CLEVELAND FLIGHT SERVICE STATION
NOTAMs facility: CLE (NOTAM-D service available)
Attendance: 0800-DUSK
Wind indicator: lighted
Segmented circle: yes
Lights: ACTVT MIRL RY 06/24; REIL & PAPI RYS O6 & 24 - CTAF.
Beacon: white-green (lighted land airport)
Operates sunset to sunrise.

Airport Communications

CTAF/UNICOM: 123.0
WX AWOS-3: 127.175 (419-443-1043)
TOLEDO APPROACH: 120.8 [0600-2300]
TOLEDO DEPARTURE: 120.8 [0600-2300]
WX AWOS-3 at FZI (10 nm NW): 124.625 (419-436-0053)
WX AWOS-3 at S24 (14 nm NE): 119.575 (419-547-6932)

Nearby radio navigation aids

VOR radial/distance  VOR name  Freq  Var
FBCr073/26.0FLAG CITY VORTAC108.2002W
VWVr140/28.8WATERVILLE VOR/DME113.1002W
BUDr352/(29.4)BUCKEYE VOR109.8005W
MFDr299/31.2MANSFIELD VORTAC108.8003W

 
NDB name  Hdg/Dist  Freq  Var  ID
TIFFINat field26905WTII - .. ..
PORT CLINTON218/29.842307WPCW .--. -.-. .--

Airport Services

Fuel available: 100LL JET-A
FUEL AVBL 24 HRS WITH CREDIT CARD.
Parking: hangars and tiedowns
Airframe service: MAJOR
Powerplant service: MAJOR
Bulk oxygen: HIGH/LOW

Runway Information

Runway 6/24

Dimensions: 4000 x 75 ft. / 1219 x 23 m
Surface: asphalt, in good condition
Runway edge lights: medium intensity
RUNWAY 6  RUNWAY 24
Latitude: 41-05.461090N41-05.824897N
Longitude: 083-13.113030W083-12.387342W
Elevation: 785.9 ft.781.1 ft.
Gradient: 0.1%0.1%
Traffic pattern: leftleft
Runway heading: 061 magnetic, 056 true241 magnetic, 236 true
Markings: nonprecision, in good conditionnonprecision, in good condition
Visual slope indicator: 4-light PAPI on left (3.00 degrees glide path)
RY 06 PAPI UNUSBL BYD 5 DEG LEFT OF CNTRLN.
4-light PAPI on left (3.00 degrees glide path)
UNUSBL BYD 4 DEG LEFT OF CRS & 8 DEG RIGHT OF CRS.
Runway end identifier lights: yesyes
Touchdown point: yes, no lightsyes, no lights
Obstructions: 85 ft. trees, 231 ft. from runway, 245 ft. right of centerline
RWY 06 APCH SLOPE 0:1 DUE TO +85 FT TREE 231 FT FM 245R
62 ft. trees, 666 ft. from runway, 298 ft. left of centerline, 6:1 slope to clear
RWY 24 +5.5 FT POWER BOX 100 FT FROM THLD 195 FT LEFT.

Airport Ownership and Management from official FAA records

Ownership: Publicly-owned
Owner: SENECA COUNTY COMSN
81 JEFFERSON ST
TIFFIN, OH 44883
Phone 419-447-4550
Manager: BRAD NEWMAN
1778 W. ST. RT 224
TIFFIN, OH 44883
Phone 419-447-4263

Airport Operational Statistics

Aircraft based on the field: 34
Single engine airplanes: 26
Multi engine airplanes: 8
    
Aircraft operations: avg 165/day *
68% local general aviation
23% transient general aviation
8% air taxi
<1% military
* for 12-month period ending 23 July 2015

Additional Remarks

AWOS 127.175 PHONE 419-443-1043
CREW CAR AND RENTAL CARS AVBL ON THE FLD.

Instrument Procedures

NOTE: All procedures below are presented as PDF files. If you need a reader for these files, you should download the free Adobe Reader.

NOT FOR NAVIGATION. Please procure official charts for flight.
FAA instrument procedures published for use from 29 March 2018 at 0901Z to 26 April 2018 at 0900Z.

 
IAPs - Instrument Approach Procedures
RNAV (GPS) RWY 06   download (196KB)
RNAV (GPS) RWY 24   download (204KB)
VOR RWY 06   download (188KB)
NDB RWY 24   download (157KB)
NOTE: Special Take-Off Minimums/Departure Procedures apply   download (164KB)

Other nearby airports with instrument procedures:

KFZI - Fostoria Metropolitan Airport (10 nm NW)
56D - Wyandot County Airport (13 nm S)
S24 - Sandusky County Regional Airport (14 nm NE)
14G - Fremont Airport (15 nm N)
KFDY - Findlay Airport (21 nm W)
 
Loc | Ops | Rwys | IFR | FBO | Links
Com | Nav | Svcs | Stats | Notes

AirNav Hotels Sweepstakes
 
Area around 16G (Seneca County Airport)
 
Road maps at: MapQuest Bing Google
 
Aerial photo
WARNING: Photo may not be current or correct
Aerial photo of 16G (Seneca County Airport)
Do you have a better or more recent aerial photo of Seneca County Airport that you would like to share? If so, please send us your photo.

 
Sectional chart

 
Airport distance calculator
Flying to Seneca County Airport? Find the distance to fly.

From to 16G

Sunrise and sunset
Times for 19-Apr-2018
 Local
(UTC-4)
 Zulu
(UTC)
Morning civil twilight06:2010:20
Sunrise06:4910:49
Sunset20:1600:16
Evening civil twilight20:4400:44

Current date and time
Zulu (UTC)  19-Apr-2018 10:15:16
Local (UTC-4)  19-Apr-2018 06:15:16
 
METAR
KFDY 
21nm W 
190953Z AUTO 35009KT 2 1/2SM -SN BR BKN006 BKN010 OVC024 01/M02 A2992 RMK AO2 SLP133 P0002 T00061017
KMNN 
29nm S 
191004Z AUTO 35011KT 4SM -SN BR BKN009 BKN013 OVC041 00/M01 A2991 RMK AO2 P0000 T00001011
KPCW 
30nm NE 
190955Z AUTO 36014KT 4SM -SN SCT009 BKN014 OVC039 01/M00 A2990 RMK AO2
KTDZ 
31nm NW 
190953Z AUTO 33008KT 4SM -SN BR FEW012 SCT031 OVC044 01/M01 A2995 RMK AO2 FZRAE0855SNB03 SLP147 P0001 I1000 T00061011
KOWX 
35nm W 
190956Z AUTO 36008KT 7SM SCT006 BKN011 OVC018 00/M01 A2996 RMK AO1
KMFD 
36nm SE 
190952Z 34011KT 2SM -SN BR OVC005 00/M01 A2985 RMK AO2 SLP116 P0005 T00001006
KTOL 
40nm NW 
191003Z 32007KT 2SM -SN BR FEW005 OVC027 01/01 A2995 RMK AO2 P0000 T00060006
TAF
KFDY 
21nm W 
190545Z 1906/2006 02010KT P6SM VCSH SCT015 OVC025 FM190700 36012G20KT 4SM -RASN OVC015 TEMPO 1908/1910 1 1/2SM -SN OVC006 FM191000 35010G20KT 6SM -SN OVC006 FM191200 33012G20KT P6SM OVC009 FM191500 32015G25KT P6SM BKN025 FM191800 32015G25KT P6SM BKN040 FM192000 32012G20KT P6SM SCT050 FM192300 32008KT P6SM SCT100
NOTAMs
Click for the latest NOTAMs
NOTAMs are issued by the DoD/FAA and will open in a separate window not controlled by AirNav.

 

 
 

FBO, Fuel Providers, and Aircraft Ground Support

  
 Business Name 
 
 Contact 
 
 Services / Description 
 
Fuel Prices
 
Comments
  
Tiffin Aire 419-447-4263
no information available

If you are affiliated with Tiffin Aire and would like to show here your services, contact info, web link, logo, and more, click here
100LL Jet A
FS $4.38 $3.60 
 Updated 02-Apr-2018
 
   16 read write
FS=Full service
Update Fuel Prices
 

Would you like to see your business listed on this page?

 If your business provides an interesting product or service to pilots, flight crews, aircraft, or users of the Seneca County Airport, you should consider listing it here.  To start the listing process, click on the button below
 
Add a business
 

Other Pages about Seneca County Airport

Update a link
 
Copyright © AirNav, LLC. All rights reserved. Privacy Policy  Contact